KRIC/RIC METAR and TAF weather

Enter ICAO airport designator
Station Type Date Time Source
KRIC METAR 2023/01/30 11:54 UTC NOAA

KRIC 301154Z 13004KT 7SM BKN075 BKN095 OVC120 07/06 A3014 RMK AO2 RAE07B35E50 SLP212 P0001 60005 70005 T00720061 10089 20072 58006


Station Type Date Time Source
KRIC Decoded METAR 2023/01/30 11:54 UTC NOAA

RICHMOND INTERNATIONAL AIRPORT, VA, United States (KRIC) 37-31N 077-19W 50M
Jan 30, 2023 - 06:54 AM EST / 2023.01.30 1154 UTC
Wind: from the SE (130 degrees) at 5 MPH (4 KT):0
Visibility: 7 mile(s):0
Sky conditions: overcast
Precipitation last hour: 0.01 inches
Temperature: 45.0 F (7.2 C)
Dew Point: 43.0 F (6.1 C)
Relative Humidity: 92%
Pressure (altimeter): 30.14 in. Hg (1020 hPa)
Pressure tendency: 0.02 inches (0.6 hPa) lower than three hours ago
ob: KRIC 301154Z 13004KT 7SM BKN075 BKN095 OVC120 07/06 A3014 RMK AO2 RAE07B35E50 SLP212 P0001 60005 70005 T00720061 10089 20072 58006
cycle: 12

Station Type Date Time Source
KRIC TAF 2023/01/30 12:36 UTC NOAA

TAF KRIC 301133Z 3012/3112 VRB03KT P6SM -RA BKN040 OVC080
FM301500 VRB03KT P6SM SCT050 BKN100
FM310800 34005KT P6SM BKN080

Example: see airport list